Time;durP1;ratioP1;P1;durP2;ratioP2;P2;SDS_P1;SDS_P2;PMS_P1;PMS_P2;Temp;Humidity;BMP_temperature;BMP_pressure;BME280_temperature;BME280_humidity;BME280_pressure;Samples;Min_cycle;Max_cycle;Signal;HPM_P1;HPM_P2
2022/03/08 00:00:28;;;;;;;4.50;3.10;;;11.70;54.80;;;;;;5057838;28;20049;-73
2022/03/08 00:02:57;;;;;;;6.60;3.42;;;11.70;54.30;;;;;;5066126;28;20082;-72
2022/03/08 00:05:24;;;;;;;5.60;3.45;;;11.70;54.10;;;;;;5039903;28;20068;-73
2022/03/08 00:07:51;;;;;;;4.30;3.38;;;11.60;54.40;;;;;;5056383;28;20384;-75
2022/03/08 00:10:17;;;;;;;4.80;3.08;;;11.60;54.40;;;;;;5057458;28;20132;-73
2022/03/08 00:12:46;;;;;;;6.38;3.40;;;11.60;54.00;;;;;;5056634;28;20113;-72
2022/03/08 00:15:14;;;;;;;5.18;3.60;;;11.60;54.20;;;;;;5056590;28;20082;-73
2022/03/08 00:17:40;;;;;;;5.38;3.50;;;11.50;54.90;;;;;;5056603;28;20048;-72
2022/03/08 00:20:08;;;;;;;4.80;3.00;;;11.50;54.60;;;;;;5056675;28;20444;-74
2022/03/08 00:22:35;;;;;;;5.88;3.58;;;11.50;54.40;;;;;;5056749;28;20045;-74
2022/03/08 00:25:01;;;;;;;5.63;3.55;;;11.30;54.60;;;;;;5056318;28;20111;-74
2022/03/08 00:27:28;;;;;;;4.65;2.95;;;11.40;54.60;;;;;;5065034;28;20048;-74
2022/03/08 00:29:54;;;;;;;5.63;3.70;;;11.40;54.50;;;;;;5076429;28;20083;-75
2022/03/08 00:32:21;;;;;;;4.90;3.28;;;11.40;54.70;;;;;;5076528;28;20124;-73
2022/03/08 00:34:46;;;;;;;6.93;3.33;;;11.40;54.50;;;;;;5076564;28;20137;-73
2022/03/08 00:37:12;;;;;;;5.22;3.40;;;11.40;54.50;;;;;;5076324;28;20432;-74
2022/03/08 00:39:38;;;;;;;6.10;3.80;;;11.40;54.30;;;;;;5058048;28;20063;-73
2022/03/08 00:42:04;;;;;;;6.95;3.65;;;11.40;54.40;;;;;;5058641;28;20044;-73
2022/03/08 00:44:30;;;;;;;5.18;3.20;;;11.50;54.30;;;;;;5076184;28;20109;-73
2022/03/08 00:46:55;;;;;;;5.55;3.90;;;11.50;54.40;;;;;;5076000;28;20044;-73
2022/03/08 00:49:21;;;;;;;6.50;4.07;;;11.40;53.40;;;;;;5058565;28;20098;-73
2022/03/08 00:51:47;;;;;;;3.95;3.15;;;11.30;54.00;;;;;;5076371;28;20051;-73
2022/03/08 00:54:13;;;;;;;6.50;3.70;;;11.20;53.90;;;;;;5075429;28;20435;-73
2022/03/08 00:56:38;;;;;;;5.40;3.65;;;11.20;54.00;;;;;;5073602;28;20047;-75
2022/03/08 00:59:04;;;;;;;5.60;3.53;;;11.20;54.00;;;;;;5055635;28;20041;-72
2022/03/08 01:01:30;;;;;;;5.63;3.55;;;11.20;54.80;;;;;;5055534;28;20041;-73
2022/03/08 01:03:56;;;;;;;6.80;4.20;;;11.10;53.90;;;;;;5038372;28;20463;-73
2022/03/08 01:06:21;;;;;;;6.75;4.20;;;11.10;53.70;;;;;;5055753;28;20120;-72
2022/03/08 01:08:47;;;;;;;5.65;4.00;;;10.90;53.80;;;;;;5037781;28;20052;-73
2022/03/08 01:11:13;;;;;;;4.63;3.90;;;10.80;54.00;;;;;;5055773;28;20048;-73
2022/03/08 01:13:39;;;;;;;5.38;4.15;;;10.80;54.40;;;;;;5055541;28;20052;-73
2022/03/08 01:16:04;;;;;;;7.13;3.92;;;10.80;54.50;;;;;;5055449;28;20125;-72
2022/03/08 01:18:30;;;;;;;6.50;4.38;;;10.70;53.90;;;;;;5055540;28;20098;-73
2022/03/08 01:20:57;;;;;;;5.18;3.40;;;10.70;53.80;;;;;;5055757;28;20059;-73
2022/03/08 01:23:23;;;;;;;5.50;3.75;;;10.70;54.40;;;;;;5037742;28;20067;-73
2022/03/08 01:25:49;;;;;;;4.85;3.33;;;10.70;54.10;;;;;;5055486;28;20048;-73
2022/03/08 01:28:14;;;;;;;5.57;3.40;;;10.70;54.20;;;;;;5038093;28;20127;-74
2022/03/08 01:30:40;;;;;;;7.32;4.22;;;10.70;54.20;;;;;;5055096;28;20044;-73
2022/03/08 01:33:06;;;;;;;4.97;4.00;;;10.80;54.20;;;;;;5055474;28;20052;-72
2022/03/08 01:35:32;;;;;;;6.05;3.60;;;10.70;53.60;;;;;;5055423;28;20106;-72
2022/03/08 01:37:58;;;;;;;4.72;3.25;;;10.70;53.60;;;;;;5054821;28;20057;-74
2022/03/08 01:40:24;;;;;;;6.40;4.05;;;10.70;53.70;;;;;;5055587;28;20068;-72
2022/03/08 01:42:51;;;;;;;6.95;3.83;;;10.60;53.90;;;;;;5054896;28;20052;-73
2022/03/08 01:45:19;;;;;;;7.03;4.05;;;10.70;53.80;;;;;;5037700;28;20092;-72
2022/03/08 01:47:45;;;;;;;9.68;3.88;;;10.70;54.00;;;;;;5055584;28;20052;-72
2022/03/08 01:50:12;;;;;;;5.60;3.65;;;10.60;53.90;;;;;;5055181;28;20111;-73
2022/03/08 01:52:39;;;;;;;4.75;3.50;;;10.60;53.90;;;;;;5055533;28;20055;-72
2022/03/08 01:55:07;;;;;;;5.20;3.50;;;10.70;54.20;;;;;;5038129;28;20049;-73
2022/03/08 01:57:33;;;;;;;6.35;3.97;;;10.60;53.60;;;;;;5048637;28;20052;-73
2022/03/08 01:59:59;;;;;;;5.82;4.07;;;10.50;53.70;;;;;;5075139;28;20399;-72
2022/03/08 02:02:24;;;;;;;4.72;3.45;;;10.60;54.00;;;;;;5068076;28;20045;-73
2022/03/08 02:04:51;;;;;;;5.55;3.85;;;10.70;54.10;;;;;;5054853;28;20044;-73
2022/03/08 02:07:18;;;;;;;5.68;4.10;;;10.60;53.50;;;;;;5055414;28;20082;-73
2022/03/08 02:09:43;;;;;;;5.40;3.47;;;10.60;53.60;;;;;;5054982;28;20052;-73
2022/03/08 02:12:10;;;;;;;5.80;3.72;;;10.40;53.30;;;;;;5056053;28;20432;-72
2022/03/08 02:14:36;;;;;;;5.60;3.70;;;10.40;53.70;;;;;;5058878;28;20045;-73
2022/03/08 02:17:05;;;;;;;5.03;3.70;;;10.40;53.60;;;;;;5040960;28;20084;-72
2022/03/08 02:19:30;;;;;;;6.50;4.13;;;10.50;54.10;;;;;;5059848;28;20041;-73
2022/03/08 02:21:56;;;;;;;5.10;4.05;;;10.60;54.00;;;;;;5058648;28;20353;-72
2022/03/08 02:24:22;;;;;;;6.63;4.28;;;10.50;54.00;;;;;;5058860;28;20131;-73
2022/03/08 02:26:49;;;;;;;5.18;3.38;;;10.50;53.80;;;;;;5058594;28;20076;-73
2022/03/08 02:29:15;;;;;;;5.40;3.90;;;10.50;54.20;;;;;;5041302;28;20049;-74
2022/03/08 02:31:41;;;;;;;6.15;4.03;;;10.50;53.90;;;;;;5058571;28;20041;-72
2022/03/08 02:34:07;;;;;;;7.25;4.40;;;10.50;54.00;;;;;;5056389;28;20051;-73
2022/03/08 02:36:32;;;;;;;7.22;4.38;;;10.50;53.50;;;;;;5041452;28;20059;-73
2022/03/08 02:38:58;;;;;;;6.70;3.97;;;10.40;53.40;;;;;;5058444;28;20067;-72
2022/03/08 02:41:24;;;;;;;4.80;3.67;;;10.50;53.90;;;;;;5058749;28;20033;-72
2022/03/08 02:43:50;;;;;;;5.50;3.60;;;10.50;53.60;;;;;;5058258;28;20445;-73
2022/03/08 02:46:16;;;;;;;5.28;3.70;;;10.50;53.60;;;;;;5058481;28;20465;-72
2022/03/08 02:48:42;;;;;;;5.97;3.92;;;10.50;53.70;;;;;;5040968;28;20057;-72
2022/03/08 02:51:07;;;;;;;5.78;3.90;;;10.50;53.40;;;;;;5058222;28;20088;-73
2022/03/08 02:53:33;;;;;;;7.25;4.70;;;10.50;53.50;;;;;;5057824;28;20051;-71
2022/03/08 02:55:59;;;;;;;4.75;3.53;;;10.40;53.00;;;;;;5040879;28;20064;-71
2022/03/08 02:58:25;;;;;;;6.50;4.47;;;10.30;53.40;;;;;;5058245;28;20041;-73
2022/03/08 03:00:51;;;;;;;5.68;3.97;;;10.30;53.60;;;;;;5057922;28;20442;-73
2022/03/08 03:03:17;;;;;;;5.07;3.63;;;10.30;53.50;;;;;;5040562;28;20049;-74
2022/03/08 03:05:43;;;;;;;6.28;3.75;;;10.30;53.40;;;;;;5040587;28;20056;-72
2022/03/08 03:08:09;;;;;;;5.13;3.85;;;10.20;53.40;;;;;;5058429;28;20049;-74
2022/03/08 03:10:35;;;;;;;7.55;4.50;;;10.10;53.50;;;;;;5057866;28;20124;-73
2022/03/08 03:13:00;;;;;;;7.05;4.30;;;10.20;53.60;;;;;;5058075;28;20115;-74
2022/03/08 03:15:28;;;;;;;6.43;4.43;;;10.20;53.40;;;;;;5092380;28;20048;-72
2022/03/08 03:17:54;;;;;;;7.25;4.43;;;10.20;53.40;;;;;;5097671;28;20455;-74
2022/03/08 03:20:22;;;;;;;4.85;3.47;;;10.10;53.60;;;;;;5080049;28;20047;-72
2022/03/08 03:22:49;;;;;;;5.60;3.97;;;10.00;54.00;;;;;;5097674;28;20083;-73
2022/03/08 03:25:15;;;;;;;6.78;4.60;;;10.10;54.00;;;;;;5080186;28;20047;-73
2022/03/08 03:27:43;;;;;;;6.88;4.38;;;10.20;53.80;;;;;;5098176;28;20405;-73
2022/03/08 03:30:11;;;;;;;9.48;4.90;;;10.10;53.10;;;;;;5098129;28;20413;-72
2022/03/08 03:32:38;;;;;;;5.93;4.13;;;10.20;53.20;;;;;;5080263;28;20053;-72
2022/03/08 03:35:04;;;;;;;4.93;3.97;;;10.10;53.20;;;;;;5077154;28;20490;-73
2022/03/08 03:37:30;;;;;;;8.18;4.63;;;10.20;53.40;;;;;;5059859;28;20348;-73
2022/03/08 03:39:56;;;;;;;5.95;4.53;;;10.20;53.60;;;;;;5077260;28;20060;-73
2022/03/08 03:42:22;;;;;;;6.47;4.68;;;10.10;53.00;;;;;;5077211;28;20479;-72
2022/03/08 03:44:48;;;;;;;7.75;4.50;;;10.10;53.30;;;;;;5077605;28;20045;-72
2022/03/08 03:47:14;;;;;;;6.45;5.15;;;10.20;53.50;;;;;;5059626;28;20068;-73
2022/03/08 03:49:39;;;;;;;7.70;4.70;;;10.20;53.10;;;;;;5077101;28;20117;-73
2022/03/08 03:52:05;;;;;;;6.32;4.75;;;10.10;53.10;;;;;;5077439;28;20126;-72
2022/03/08 03:54:31;;;;;;;8.23;5.53;;;10.10;53.00;;;;;;5077062;28;20139;-72
2022/03/08 03:56:57;;;;;;;6.65;4.80;;;10.10;52.90;;;;;;5077169;28;20082;-72
2022/03/08 03:59:22;;;;;;;7.05;4.97;;;10.10;53.00;;;;;;5077769;28;20041;-73
2022/03/08 04:01:48;;;;;;;6.25;4.85;;;10.10;53.00;;;;;;5072539;28;20051;-73
2022/03/08 04:04:14;;;;;;;5.95;4.82;;;10.10;53.10;;;;;;5076978;28;20051;-74
2022/03/08 04:06:39;;;;;;;7.53;4.88;;;10.10;52.90;;;;;;5076806;28;20060;-73
2022/03/08 04:09:06;;;;;;;7.32;5.30;;;10.00;53.10;;;;;;5077191;28;20131;-73
2022/03/08 04:11:32;;;;;;;7.47;5.65;;;9.90;53.10;;;;;;5076895;28;20360;-73
2022/03/08 04:13:58;;;;;;;8.35;5.35;;;9.90;53.50;;;;;;5076776;28;20083;-73
2022/03/08 04:16:24;;;;;;;8.40;5.50;;;9.90;52.80;;;;;;5076561;28;20045;-74
2022/03/08 04:18:50;;;;;;;8.13;5.78;;;9.80;53.20;;;;;;5076137;28;20055;-73
2022/03/08 04:21:15;;;;;;;7.55;5.03;;;9.70;53.00;;;;;;5076562;28;20094;-73
2022/03/08 04:23:41;;;;;;;7.03;4.80;;;9.70;53.60;;;;;;5076828;28;20048;-73
2022/03/08 04:26:07;;;;;;;8.93;5.63;;;9.60;53.70;;;;;;5076813;28;20455;-73
2022/03/08 04:28:33;;;;;;;8.70;5.28;;;9.70;54.00;;;;;;5076574;28;20044;-73
2022/03/08 04:30:58;;;;;;;6.28;4.90;;;9.80;53.50;;;;;;5071940;28;20040;-74
2022/03/08 04:33:24;;;;;;;7.68;5.78;;;9.70;53.30;;;;;;5038939;28;20075;-73
2022/03/08 04:35:50;;;;;;;7.47;5.60;;;9.80;53.40;;;;;;5055780;28;20051;-74
2022/03/08 04:38:16;;;;;;;8.38;6.07;;;9.70;52.90;;;;;;5056292;28;20060;-73
2022/03/08 04:40:42;;;;;;;6.57;4.93;;;9.70;53.30;;;;;;5056571;28;20063;-74
2022/03/08 04:43:07;;;;;;;7.68;6.00;;;9.70;53.60;;;;;;5056207;28;20372;-73
2022/03/08 04:45:33;;;;;;;7.45;5.90;;;9.70;53.50;;;;;;5054875;28;20049;-74
2022/03/08 04:47:59;;;;;;;9.02;5.53;;;9.60;53.20;;;;;;5054989;28;20063;-74
2022/03/08 04:50:25;;;;;;;9.23;5.78;;;9.60;53.60;;;;;;5055771;28;20043;-72
2022/03/08 04:52:51;;;;;;;8.23;5.95;;;9.60;53.70;;;;;;5056225;28;20045;-72
2022/03/08 04:55:19;;;;;;;8.52;6.65;;;9.60;53.90;;;;;;5055297;28;20475;-73
2022/03/08 04:57:45;;;;;;;7.15;5.75;;;9.60;53.60;;;;;;5056092;28;20055;-72
2022/03/08 05:00:12;;;;;;;10.75;6.95;;;9.60;53.70;;;;;;5038256;28;20368;-74
2022/03/08 05:02:42;;;;;;;8.40;5.82;;;9.60;53.60;;;;;;5073506;28;20037;-73
2022/03/08 05:05:09;;;;;;;8.55;6.15;;;9.60;53.70;;;;;;5075412;28;20534;-72
2022/03/08 05:07:36;;;;;;;8.80;6.28;;;9.60;53.50;;;;;;5075831;28;20434;-72
2022/03/08 05:10:06;;;;;;;7.75;5.72;;;9.70;53.10;;;;;;5076079;28;20040;-74
2022/03/08 05:12:33;;;;;;;7.85;6.20;;;9.60;53.30;;;;;;5075633;28;20063;-72
2022/03/08 05:14:59;;;;;;;7.95;6.53;;;9.60;53.10;;;;;;5075450;28;20117;-72
2022/03/08 05:17:25;;;;;;;13.95;7.65;;;9.50;53.30;;;;;;5057553;28;20131;-74
2022/03/08 05:19:51;;;;;;;9.02;6.75;;;9.50;53.40;;;;;;5075529;28;20136;-72
2022/03/08 05:22:17;;;;;;;10.80;6.38;;;9.50;53.70;;;;;;5075619;28;20518;-72
2022/03/08 05:24:43;;;;;;;8.55;6.50;;;9.40;54.00;;;;;;5075538;28;20051;-72
2022/03/08 05:27:10;;;;;;;9.05;6.38;;;9.40;53.30;;;;;;5075327;28;20131;-73
2022/03/08 05:29:36;;;;;;;10.32;6.90;;;9.30;53.50;;;;;;5076021;28;20114;-72
2022/03/08 05:32:02;;;;;;;9.10;6.90;;;9.20;54.00;;;;;;5059470;28;20041;-73
2022/03/08 05:34:28;;;;;;;9.52;6.80;;;9.30;54.30;;;;;;5055073;28;20056;-72
2022/03/08 05:36:54;;;;;;;11.90;6.93;;;9.30;54.00;;;;;;5055431;28;20045;-72
2022/03/08 05:39:20;;;;;;;9.27;6.50;;;9.30;54.00;;;;;;5055258;28;20060;-73
2022/03/08 05:41:45;;;;;;;10.25;6.93;;;9.40;54.10;;;;;;5055163;28;20060;-73
2022/03/08 05:44:11;;;;;;;13.57;6.88;;;9.30;53.70;;;;;;5065800;28;20048;-71
2022/03/08 05:46:37;;;;;;;8.85;5.95;;;9.40;54.20;;;;;;5069041;28;20044;-71
2022/03/08 05:49:03;;;;;;;12.70;6.18;;;9.60;54.90;;;;;;5057166;28;20178;-75
2022/03/08 05:51:28;;;;;;;10.35;8.00;;;9.80;54.80;;;;;;5053732;28;20044;-70
2022/03/08 05:53:54;;;;;;;10.25;7.93;;;10.00;53.70;;;;;;5037633;28;20056;-74
2022/03/08 05:56:20;;;;;;;10.23;7.07;;;10.10;52.70;;;;;;5055098;28;20113;-83
2022/03/08 05:58:46;;;;;;;14.80;8.85;;;10.30;51.90;;;;;;5055537;28;20049;-73
2022/03/08 06:01:11;;;;;;;11.13;8.32;;;10.40;51.00;;;;;;5054900;28;20317;-74
2022/03/08 06:03:37;;;;;;;12.27;7.65;;;10.50;50.80;;;;;;5040569;28;20050;-74
2022/03/08 06:06:03;;;;;;;14.60;8.02;;;10.50;51.10;;;;;;5074866;28;20048;-78
2022/03/08 06:08:29;;;;;;;12.55;7.68;;;10.60;51.80;;;;;;5056989;28;20140;-72
2022/03/08 06:10:54;;;;;;;10.50;6.80;;;10.70;51.10;;;;;;5057203;28;20048;-73
2022/03/08 06:13:20;;;;;;;10.20;6.38;;;10.90;51.10;;;;;;5074489;28;20045;-74
2022/03/08 06:15:50;;;;;;;8.57;6.07;;;11.20;51.30;;;;;;5075325;28;20447;-72
2022/03/08 06:18:17;;;;;;;11.65;6.03;;;11.50;51.50;;;;;;5074987;28;20071;-70
2022/03/08 06:20:43;;;;;;;8.50;5.35;;;11.80;51.60;;;;;;5057374;28;20052;-77
2022/03/08 06:23:09;;;;;;;9.63;5.53;;;12.20;51.60;;;;;;5040475;28;20052;-75
2022/03/08 06:25:35;;;;;;;6.75;4.93;;;12.40;51.50;;;;;;5057061;28;20119;-76
2022/03/08 06:28:01;;;;;;;12.75;5.68;;;12.70;51.40;;;;;;5074592;28;20566;-76
2022/03/08 06:30:26;;;;;;;10.65;6.13;;;12.80;50.50;;;;;;5075077;28;20367;-77
2022/03/08 06:32:52;;;;;;;9.23;4.63;;;12.80;48.90;;;;;;5074835;28;20161;-78
2022/03/08 06:35:19;;;;;;;10.23;4.72;;;12.80;51.00;;;;;;5072114;28;20056;-74
2022/03/08 06:37:48;;;;;;;10.38;4.63;;;12.70;50.50;;;;;;5062411;28;20056;-80
2022/03/08 06:40:13;;;;;;;17.00;4.88;;;13.00;52.40;;;;;;5073868;28;20113;-75
2022/03/08 06:42:39;;;;;;;14.57;3.63;;;13.30;52.40;;;;;;5074350;28;20428;-76
2022/03/08 06:45:06;;;;;;;11.00;3.95;;;13.60;52.50;;;;;;5056923;28;20041;-78
2022/03/08 06:47:32;;;;;;;13.82;3.70;;;13.80;52.40;;;;;;5074800;28;20376;-77
2022/03/08 06:49:58;;;;;;;6.70;3.22;;;13.90;52.40;;;;;;5074325;28;20051;-77
2022/03/08 06:52:24;;;;;;;8.63;3.47;;;14.10;52.50;;;;;;5056782;28;20044;-76
2022/03/08 06:54:50;;;;;;;13.43;3.47;;;14.20;52.40;;;;;;5074393;28;20045;-76
2022/03/08 06:57:18;;;;;;;7.47;2.58;;;14.40;52.30;;;;;;5073637;28;20363;-78
2022/03/08 06:59:44;;;;;;;9.05;3.75;;;14.40;52.00;;;;;;5057725;28;20041;-77
2022/03/08 07:02:10;;;;;;;6.97;3.08;;;14.60;52.00;;;;;;5058006;28;20102;-79
2022/03/08 07:04:35;;;;;;;6.15;2.47;;;14.70;51.60;;;;;;5044822;28;20429;-78
2022/03/08 07:07:01;;;;;;;9.82;3.33;;;14.70;51.40;;;;;;5078202;28;20048;-79
2022/03/08 07:09:27;;;;;;;10.85;3.55;;;14.90;51.50;;;;;;5043136;28;20153;-76
2022/03/08 07:11:53;;;;;;;9.15;3.17;;;14.90;50.80;;;;;;5059870;28;20049;-76
2022/03/08 07:14:19;;;;;;;10.60;2.90;;;14.90;51.30;;;;;;5060142;28;20382;-81
2022/03/08 07:16:46;;;;;;;9.27;3.05;;;15.00;51.50;;;;;;5077616;28;20036;-76
2022/03/08 07:19:13;;;;;;;9.77;2.63;;;15.10;50.90;;;;;;5077692;28;20040;-76
2022/03/08 07:21:42;;;;;;;6.65;3.08;;;15.20;50.50;;;;;;5077637;28;20052;-76
2022/03/08 07:24:08;;;;;;;9.35;3.08;;;15.30;50.30;;;;;;5077622;28;20486;-77
2022/03/08 07:26:34;;;;;;;10.38;2.90;;;15.30;50.00;;;;;;5077251;28;20447;-77
2022/03/08 07:29:00;;;;;;;6.45;2.88;;;15.40;49.80;;;;;;5076652;28;20052;-77
2022/03/08 07:31:25;;;;;;;5.97;2.50;;;15.50;49.60;;;;;;5077560;28;20106;-75
2022/03/08 07:33:51;;;;;;;4.82;2.30;;;15.60;49.30;;;;;;5077478;28;20439;-76
2022/03/08 07:36:18;;;;;;;5.70;1.92;;;15.60;49.30;;;;;;5078087;28;20044;-75
2022/03/08 07:38:44;;;;;;;5.32;2.33;;;15.60;49.20;;;;;;5056144;28;20405;-76
2022/03/08 07:41:09;;;;;;;5.57;2.58;;;15.70;49.20;;;;;;5056634;28;20148;-76
2022/03/08 07:43:35;;;;;;;6.47;2.25;;;15.70;49.00;;;;;;5056679;28;20045;-79
2022/03/08 07:46:04;;;;;;;9.75;2.92;;;15.80;48.90;;;;;;5069116;28;20041;-77
2022/03/08 07:48:31;;;;;;;5.97;2.88;;;15.90;48.20;;;;;;5079679;28;20052;-76
2022/03/08 07:50:57;;;;;;;5.07;2.17;;;16.00;47.90;;;;;;5079290;28;20101;-78
2022/03/08 07:53:26;;;;;;;4.30;2.45;;;16.10;47.90;;;;;;5097335;28;20051;-76
2022/03/08 07:55:53;;;;;;;6.50;2.15;;;16.20;48.00;;;;;;5097111;28;20086;-74
2022/03/08 07:58:21;;;;;;;6.45;2.35;;;16.20;47.90;;;;;;5079408;28;20054;-76
2022/03/08 08:00:48;;;;;;;4.00;2.30;;;16.30;48.00;;;;;;5095481;28;20044;-75
2022/03/08 08:03:19;;;;;;;8.35;2.50;;;16.30;48.00;;;;;;5079879;28;20044;-70
2022/03/08 08:05:45;;;;;;;2.65;1.90;;;16.30;48.00;;;;;;5097038;28;20058;-81
2022/03/08 08:08:11;;;;;;;5.75;1.80;;;16.40;47.90;;;;;;5096872;28;20036;-73
2022/03/08 08:10:36;;;;;;;5.55;1.88;;;16.50;48.10;;;;;;5082294;28;20037;-80
2022/03/08 08:13:02;;;;;;;3.60;1.67;;;16.60;48.10;;;;;;5060249;28;20037;-75
2022/03/08 08:15:36;;;;;;;4.38;2.00;;;16.60;48.30;;;;;;5039154;28;20053;-76
2022/03/08 08:18:02;;;;;;;5.68;2.13;;;16.70;48.50;;;;;;5038798;28;20083;-76
2022/03/08 08:20:28;;;;;;;4.63;1.70;;;16.70;48.70;;;;;;5066166;28;20048;-75
2022/03/08 08:22:54;;;;;;;5.22;2.33;;;16.70;49.00;;;;;;5075995;28;20115;-77
2022/03/08 08:25:19;;;;;;;7.43;2.58;;;16.80;49.00;;;;;;5076866;28;20056;-77
2022/03/08 08:27:45;;;;;;;5.68;1.75;;;16.80;49.10;;;;;;5077157;28;20052;-77
2022/03/08 08:30:11;;;;;;;6.90;1.90;;;16.80;49.10;;;;;;5076247;28;20049;-77
2022/03/08 08:32:38;;;;;;;7.55;2.00;;;16.80;49.20;;;;;;5058828;28;20048;-77
2022/03/08 08:35:04;;;;;;;3.60;1.63;;;16.90;49.30;;;;;;5074034;28;20340;-80
2022/03/08 08:37:30;;;;;;;3.45;1.42;;;16.90;49.20;;;;;;5054039;28;20087;-79
2022/03/08 08:39:56;;;;;;;4.85;2.13;;;16.90;49.70;;;;;;5049159;28;20049;-78
2022/03/08 08:42:21;;;;;;;4.60;1.60;;;17.00;49.20;;;;;;5066212;28;20055;-78
2022/03/08 08:44:47;;;;;;;5.13;1.35;;;17.00;49.20;;;;;;5056081;28;20048;-78
2022/03/08 08:47:13;;;;;;;6.28;1.60;;;17.00;49.20;;;;;;5065981;28;20123;-78
2022/03/08 08:49:38;;;;;;;4.05;1.60;;;17.10;49.30;;;;;;5073758;28;20048;-77
2022/03/08 08:52:05;;;;;;;3.53;1.50;;;17.10;49.30;;;;;;5070754;28;20051;-73
2022/03/08 08:54:31;;;;;;;3.05;1.73;;;17.10;49.30;;;;;;5075610;28;20048;-73
2022/03/08 08:56:57;;;;;;;2.78;1.30;;;17.10;49.30;;;;;;5075619;28;20047;-73
2022/03/08 08:59:23;;;;;;;3.55;1.48;;;17.10;49.30;;;;;;5076206;28;20054;-75
2022/03/08 09:01:49;;;;;;;5.00;1.80;;;17.10;49.30;;;;;;5075879;28;20417;-76
2022/03/08 09:04:14;;;;;;;4.35;1.73;;;17.10;49.50;;;;;;5075866;28;20135;-75
2022/03/08 09:06:41;;;;;;;6.28;1.42;;;17.10;49.50;;;;;;5071012;28;20400;-75
2022/03/08 09:09:07;;;;;;;5.28;2.15;;;17.10;49.30;;;;;;5057329;28;20059;-77
2022/03/08 09:11:33;;;;;;;6.80;2.22;;;17.00;49.00;;;;;;5072263;28;20080;-75
2022/03/08 09:13:59;;;;;;;6.93;2.67;;;16.70;47.90;;;;;;5067573;28;20087;-76
2022/03/08 09:16:26;;;;;;;6.85;2.30;;;16.80;49.60;;;;;;5063583;28;20478;-74
2022/03/08 09:18:52;;;;;;;4.95;2.13;;;16.80;49.80;;;;;;5080076;28;20057;-74
2022/03/08 09:21:17;;;;;;;8.25;2.78;;;16.90;49.90;;;;;;5063436;28;20036;-74
2022/03/08 09:23:43;;;;;;;6.22;2.03;;;16.90;49.90;;;;;;5074683;28;20053;-74
2022/03/08 09:26:09;;;;;;;6.63;2.70;;;16.90;49.80;;;;;;5067444;28;20391;-74
2022/03/08 09:28:35;;;;;;;5.10;1.70;;;17.00;49.70;;;;;;5055366;28;20124;-75
2022/03/08 09:31:01;;;;;;;2.67;1.55;;;17.00;49.70;;;;;;5056214;28;20053;-75
2022/03/08 09:33:28;;;;;;;6.80;2.22;;;17.00;49.70;;;;;;5055182;28;20045;-76
2022/03/08 09:35:53;;;;;;;3.40;1.77;;;17.00;49.40;;;;;;5054478;28;20044;-74
2022/03/08 09:38:19;;;;;;;16.80;2.45;;;17.00;48.90;;;;;;5055779;28;20068;-75
2022/03/08 09:40:47;;;;;;;7.60;2.13;;;16.80;47.10;;;;;;5065567;28;20036;-78
2022/03/08 09:43:14;;;;;;;5.65;2.38;;;16.50;47.40;;;;;;5075281;28;20045;-78
2022/03/08 09:45:41;;;;;;;9.70;2.92;;;16.60;48.20;;;;;;5073349;28;20127;-74
2022/03/08 09:48:07;;;;;;;4.50;1.98;;;16.60;47.00;;;;;;5094435;28;20044;-76
2022/03/08 09:50:33;;;;;;;7.00;2.15;;;16.70;46.50;;;;;;5068378;28;20051;-77
2022/03/08 09:52:59;;;;;;;5.65;2.22;;;16.80;46.50;;;;;;5051825;28;20056;-77
2022/03/08 09:55:26;;;;;;;4.35;1.85;;;16.90;46.70;;;;;;5075193;28;20526;-77
2022/03/08 09:57:53;;;;;;;5.63;1.60;;;16.90;46.70;;;;;;5039495;28;20052;-76
2022/03/08 10:00:21;;;;;;;7.75;1.50;;;17.00;46.80;;;;;;5055221;28;20054;-78
2022/03/08 10:02:58;;;;;;;5.53;1.55;;;17.00;46.90;;;;;;5073311;28;20066;-77
2022/03/08 10:05:39;;;;;;;3.45;1.73;;;17.00;46.90;;;;;;5074535;28;20125;-76
2022/03/08 10:08:14;;;;;;;2.42;1.40;;;17.20;47.20;;;;;;5075186;28;20083;-77
2022/03/08 10:11:19;;;;;;;5.03;1.80;;;17.20;47.00;;;;;;5052602;28;20040;-78
2022/03/08 10:13:49;;;;;;;3.78;2.28;;;17.20;47.20;;;;;;5014358;28;20118;-77
2022/03/08 10:16:24;;;;;;;4.80;2.63;;;17.30;46.20;;;;;;5052157;28;20053;-79
2022/03/08 10:18:52;;;;;;;4.65;2.08;;;17.30;44.40;;;;;;5074733;28;20056;-78
2022/03/08 10:21:38;;;;;;;7.20;2.08;;;17.20;44.40;;;;;;5073120;28;20475;-75
2022/03/08 10:24:12;;;;;;;8.63;2.65;;;17.20;44.90;;;;;;5092517;28;20059;-78
2022/03/08 10:27:10;;;;;;;11.65;2.08;;;17.30;45.50;;;;;;5079538;28;20052;-76
2022/03/08 10:29:37;;;;;;;7.22;2.45;;;17.30;46.00;;;;;;5072292;28;20059;-77
2022/03/08 10:32:04;;;;;;;5.97;1.88;;;17.30;46.30;;;;;;5076263;28;20076;-73
2022/03/08 10:34:30;;;;;;;4.30;1.48;;;17.30;46.60;;;;;;5098313;28;20044;-76
2022/03/08 10:37:07;;;;;;;6.22;1.65;;;17.20;46.90;;;;;;5099039;28;20424;-74
2022/03/08 10:39:33;;;;;;;4.45;1.73;;;17.30;47.10;;;;;;5081334;28;20065;-73
2022/03/08 10:42:00;;;;;;;3.22;1.58;;;17.30;47.30;;;;;;5078989;28;20140;-76
2022/03/08 10:44:44;;;;;;;4.07;1.33;;;17.30;47.50;;;;;;5078546;28;20444;-74
2022/03/08 10:47:13;;;;;;;3.95;1.42;;;17.30;47.80;;;;;;5077922;28;20371;-73
2022/03/08 10:49:55;;;;;;;5.20;1.38;;;17.20;48.00;;;;;;5078226;28;20049;-76
2022/03/08 10:52:28;;;;;;;3.85;1.35;;;17.20;48.30;;;;;;5074363;28;20051;-75
2022/03/08 10:54:54;;;;;;;5.40;1.40;;;17.30;48.40;;;;;;5058113;28;20053;-75
2022/03/08 10:57:21;;;;;;;4.10;1.17;;;17.30;48.60;;;;;;5056973;28;20132;-75
2022/03/08 10:59:55;;;;;;;4.05;1.33;;;17.30;48.70;;;;;;5057179;28;20063;-76
2022/03/08 11:02:23;;;;;;;5.32;1.15;;;17.30;48.70;;;;;;5061013;28;20040;-75
2022/03/08 11:05:06;;;;;;;3.58;1.52;;;17.20;48.80;;;;;;5078035;28;20242;-74
2022/03/08 11:07:40;;;;;;;4.03;1.38;;;17.10;49.10;;;;;;5077295;28;20041;-77
2022/03/08 11:10:09;;;;;;;7.03;1.45;;;17.10;50.00;;;;;;5077156;28;20510;-77
2022/03/08 11:12:38;;;;;;;8.15;1.75;;;17.10;49.50;;;;;;5072518;28;20037;-78
2022/03/08 11:15:06;;;;;;;7.82;2.67;;;17.10;49.20;;;;;;5073379;28;20120;-73
2022/03/08 11:17:37;;;;;;;3.50;2.20;;;17.00;51.70;;;;;;5057727;28;20037;-75
2022/03/08 11:20:17;;;;;;;9.93;2.58;;;17.00;53.60;;;;;;5057604;28;20045;-82
2022/03/08 11:22:44;;;;;;;6.32;1.83;;;16.90;54.30;;;;;;5040133;28;20527;-76
2022/03/08 11:25:16;;;;;;;9.00;2.88;;;16.90;53.00;;;;;;5039611;28;20464;-76
2022/03/08 11:27:45;;;;;;;5.22;2.50;;;16.90;51.20;;;;;;5039820;28;20044;-76
2022/03/08 11:30:14;;;;;;;6.13;2.60;;;16.80;47.90;;;;;;5057639;28;20522;-79
2022/03/08 11:32:55;;;;;;;5.32;2.88;;;16.70;47.00;;;;;;5027763;28;20051;-79
2022/03/08 11:35:31;;;;;;;7.93;2.10;;;16.60;46.40;;;;;;5077227;28;20355;-77
2022/03/08 11:37:59;;;;;;;10.60;2.30;;;16.60;46.90;;;;;;5059472;28;20060;-78
2022/03/08 11:40:25;;;;;;;8.68;2.47;;;16.50;48.10;;;;;;5077397;28;20040;-78
2022/03/08 11:42:53;;;;;;;6.35;2.40;;;16.40;48.70;;;;;;5053359;28;20127;-76
2022/03/08 11:45:24;;;;;;;5.07;2.03;;;16.40;49.70;;;;;;5039983;28;20049;-79
2022/03/08 11:48:04;;;;;;;11.32;2.22;;;16.30;48.30;;;;;;5072970;28;20446;-76
2022/03/08 11:50:35;;;;;;;6.43;2.00;;;16.20;51.20;;;;;;5059260;28;20050;-76
2022/03/08 11:53:05;;;;;;;7.53;2.53;;;16.20;51.40;;;;;;5055428;28;20064;-76
2022/03/08 11:55:55;;;;;;;8.70;3.47;;;16.20;51.00;;;;;;5057344;28;20075;-77
2022/03/08 11:58:43;;;;;;;7.47;3.90;;;16.20;50.20;;;;;;5048868;28;20106;-73
2022/03/08 12:01:27;;;;;;;9.18;4.40;;;16.30;49.30;;;;;;5073970;28;20071;-77
2022/03/08 12:03:55;;;;;;;;;;;16.30;48.70;;;;;;5059805;28;20336;-78
2022/03/08 12:06:39;;;;;;;10.60;4.43;;;16.20;48.50;;;;;;5065468;28;19920;-80
2022/03/08 12:09:25;;;;;;;5.20;3.50;;;16.30;45.90;;;;;;5059265;28;20455;-74
2022/03/08 12:11:57;;;;;;;7.95;3.40;;;16.30;46.50;;;;;;5042499;28;20040;-75
2022/03/08 12:14:31;;;;;;;6.60;3.50;;;16.30;47.80;;;;;;5065203;28;20033;-77
2022/03/08 12:17:06;;;;;;;8.95;3.40;;;16.20;47.40;;;;;;5076282;28;20044;-79
2022/03/08 12:19:36;;;;;;;6.05;3.42;;;16.30;46.80;;;;;;5074045;28;20059;-76
2022/03/08 12:22:02;;;;;;;4.60;3.33;;;16.30;47.00;;;;;;5074518;28;20371;-76
2022/03/08 12:24:39;;;;;;;6.32;3.60;;;16.30;45.60;;;;;;5073894;28;20033;-74
2022/03/08 12:27:05;;;;;;;9.35;3.40;;;16.30;45.70;;;;;;5075294;28;20053;-72
2022/03/08 12:29:49;;;;;;;6.43;3.60;;;16.30;44.70;;;;;;5074754;28;20044;-75
2022/03/08 12:32:23;;;;;;;;;;;16.20;44.80;;;;;;5067581;28;20040;-74
2022/03/08 12:34:52;;;;;;;13.70;3.45;;;16.20;45.80;;;;;;5073120;28;19928;-74
2022/03/08 12:37:29;;;;;;;11.30;4.43;;;16.20;44.10;;;;;;5042540;28;20057;-74
2022/03/08 12:40:01;;;;;;;5.78;3.97;;;16.20;43.30;;;;;;5057097;28;20053;-75
2022/03/08 12:42:38;;;;;;;6.45;3.42;;;16.10;42.70;;;;;;5049760;28;20056;-75
2022/03/08 12:45:14;;;;;;;5.00;3.45;;;16.10;41.80;;;;;;5076164;28;20382;-74
2022/03/08 12:47:46;;;;;;;6.00;3.47;;;16.10;42.00;;;;;;5075958;28;20048;-75
2022/03/08 12:50:20;;;;;;;5.68;3.65;;;16.00;41.80;;;;;;5076223;28;20059;-74